sensor_id;sensor_type;location;lat;lon;timestamp;temperature;humidity
21199;DHT22;10757;51.038;3.712;2023-01-29T00:00:04;2.80;99.90
21199;DHT22;10757;51.038;3.712;2023-01-29T00:02:35;3.00;99.90
21199;DHT22;10757;51.038;3.712;2023-01-29T00:05:01;3.20;99.90
21199;DHT22;10757;51.038;3.712;2023-01-29T00:07:26;3.30;99.90
21199;DHT22;10757;51.038;3.712;2023-01-29T00:09:52;3.30;99.90
21199;DHT22;10757;51.038;3.712;2023-01-29T00:12:18;3.30;99.90
21199;DHT22;10757;51.038;3.712;2023-01-29T00:14:43;3.10;99.90
21199;DHT22;10757;51.038;3.712;2023-01-29T00:17:09;3.00;99.90
21199;DHT22;10757;51.038;3.712;2023-01-29T00:19:35;3.20;99.90
21199;DHT22;10757;51.038;3.712;2023-01-29T00:22:00;3.20;99.90
21199;DHT22;10757;51.038;3.712;2023-01-29T00:24:26;2.90;99.90
21199;DHT22;10757;51.038;3.712;2023-01-29T00:26:52;2.90;99.90
21199;DHT22;10757;51.038;3.712;2023-01-29T00:29:17;2.70;99.90
21199;DHT22;10757;51.038;3.712;2023-01-29T00:31:44;2.70;99.90
21199;DHT22;10757;51.038;3.712;2023-01-29T00:34:09;2.50;99.90
21199;DHT22;10757;51.038;3.712;2023-01-29T00:36:35;2.60;99.90
21199;DHT22;10757;51.038;3.712;2023-01-29T00:39:01;2.60;99.90
21199;DHT22;10757;51.038;3.712;2023-01-29T00:41:35;2.60;99.90
21199;DHT22;10757;51.038;3.712;2023-01-29T00:44:33;2.70;99.90
21199;DHT22;10757;51.038;3.712;2023-01-29T00:47:17;2.60;99.90
21199;DHT22;10757;51.038;3.712;2023-01-29T00:49:55;2.50;99.90
21199;DHT22;10757;51.038;3.712;2023-01-29T00:52:22;2.50;99.90
21199;DHT22;10757;51.038;3.712;2023-01-29T00:54:55;2.60;99.90
21199;DHT22;10757;51.038;3.712;2023-01-29T00:57:23;2.50;99.90
21199;DHT22;10757;51.038;3.712;2023-01-29T00:59:51;2.70;99.90
21199;DHT22;10757;51.038;3.712;2023-01-29T01:02:17;2.80;99.90
21199;DHT22;10757;51.038;3.712;2023-01-29T01:05:02;2.70;99.90
21199;DHT22;10757;51.038;3.712;2023-01-29T01:07:30;2.60;99.90
21199;DHT22;10757;51.038;3.712;2023-01-29T01:09:56;2.70;99.90
21199;DHT22;10757;51.038;3.712;2023-01-29T01:12:41;2.90;99.90
21199;DHT22;10757;51.038;3.712;2023-01-29T01:15:07;3.20;99.90
21199;DHT22;10757;51.038;3.712;2023-01-29T01:17:33;3.50;99.90
21199;DHT22;10757;51.038;3.712;2023-01-29T01:19:59;3.50;99.90
21199;DHT22;10757;51.038;3.712;2023-01-29T01:22:25;3.30;99.90
21199;DHT22;10757;51.038;3.712;2023-01-29T01:24:50;3.50;99.90
21199;DHT22;10757;51.038;3.712;2023-01-29T01:27:16;3.40;99.90
21199;DHT22;10757;51.038;3.712;2023-01-29T01:29:46;3.30;99.90
21199;DHT22;10757;51.038;3.712;2023-01-29T01:32:13;3.20;99.90
21199;DHT22;10757;51.038;3.712;2023-01-29T01:34:40;3.10;99.90
21199;DHT22;10757;51.038;3.712;2023-01-29T01:37:05;3.10;99.90
21199;DHT22;10757;51.038;3.712;2023-01-29T01:39:31;3.20;99.90
21199;DHT22;10757;51.038;3.712;2023-01-29T01:41:57;2.90;99.90
21199;DHT22;10757;51.038;3.712;2023-01-29T01:44:50;2.90;99.90
21199;DHT22;10757;51.038;3.712;2023-01-29T01:47:17;2.90;99.90
21199;DHT22;10757;51.038;3.712;2023-01-29T01:49:44;2.90;99.90
21199;DHT22;10757;51.038;3.712;2023-01-29T01:52:12;2.90;99.90
21199;DHT22;10757;51.038;3.712;2023-01-29T01:54:41;3.10;99.90
21199;DHT22;10757;51.038;3.712;2023-01-29T01:57:16;3.00;99.90
21199;DHT22;10757;51.038;3.712;2023-01-29T01:59:47;3.00;99.90
21199;DHT22;10757;51.038;3.712;2023-01-29T02:02:14;3.00;99.90
21199;DHT22;10757;51.038;3.712;2023-01-29T02:04:59;3.20;99.90
21199;DHT22;10757;51.038;3.712;2023-01-29T02:07:46;3.40;99.90
21199;DHT22;10757;51.038;3.712;2023-01-29T02:10:35;3.40;99.90
21199;DHT22;10757;51.038;3.712;2023-01-29T02:13:04;3.30;99.90
21199;DHT22;10757;51.038;3.712;2023-01-29T02:15:30;3.50;99.90
21199;DHT22;10757;51.038;3.712;2023-01-29T02:17:56;3.40;99.90
21199;DHT22;10757;51.038;3.712;2023-01-29T02:20:27;3.50;99.90
21199;DHT22;10757;51.038;3.712;2023-01-29T02:38:37;4.00;99.90
21199;DHT22;10757;51.038;3.712;2023-01-29T02:47:10;3.60;99.90
21199;DHT22;10757;51.038;3.712;2023-01-29T02:49:45;3.60;99.90
21199;DHT22;10757;51.038;3.712;2023-01-29T02:52:26;3.50;99.90
21199;DHT22;10757;51.038;3.712;2023-01-29T02:55:12;3.40;99.90
21199;DHT22;10757;51.038;3.712;2023-01-29T02:57:43;3.50;99.90
21199;DHT22;10757;51.038;3.712;2023-01-29T03:00:26;3.50;99.90
21199;DHT22;10757;51.038;3.712;2023-01-29T03:06:02;3.50;99.90
21199;DHT22;10757;51.038;3.712;2023-01-29T03:08:41;3.50;99.90
21199;DHT22;10757;51.038;3.712;2023-01-29T03:11:14;3.50;99.90
21199;DHT22;10757;51.038;3.712;2023-01-29T03:13:41;3.70;99.90
21199;DHT22;10757;51.038;3.712;2023-01-29T03:19:02;3.80;99.90
21199;DHT22;10757;51.038;3.712;2023-01-29T03:21:39;3.70;99.90
21199;DHT22;10757;51.038;3.712;2023-01-29T03:24:47;3.70;99.90
21199;DHT22;10757;51.038;3.712;2023-01-29T03:27:46;3.60;99.90
21199;DHT22;10757;51.038;3.712;2023-01-29T03:30:39;3.60;99.90
21199;DHT22;10757;51.038;3.712;2023-01-29T03:33:25;3.70;99.90
21199;DHT22;10757;51.038;3.712;2023-01-29T03:35:59;3.70;99.90
21199;DHT22;10757;51.038;3.712;2023-01-29T03:38:29;3.60;99.90
21199;DHT22;10757;51.038;3.712;2023-01-29T03:41:14;3.50;99.90
21199;DHT22;10757;51.038;3.712;2023-01-29T03:43:48;3.50;99.90
21199;DHT22;10757;51.038;3.712;2023-01-29T03:49:05;4.10;99.90
21199;DHT22;10757;51.038;3.712;2023-01-29T03:57:39;4.10;99.90
21199;DHT22;10757;51.038;3.712;2023-01-29T04:00:25;4.00;99.90
21199;DHT22;10757;51.038;3.712;2023-01-29T04:03:20;3.90;99.90
21199;DHT22;10757;51.038;3.712;2023-01-29T04:06:23;4.20;99.90
21199;DHT22;10757;51.038;3.712;2023-01-29T04:09:17;4.20;99.90
21199;DHT22;10757;51.038;3.712;2023-01-29T04:11:49;4.20;99.90
21199;DHT22;10757;51.038;3.712;2023-01-29T04:14:15;4.40;99.90
21199;DHT22;10757;51.038;3.712;2023-01-29T04:16:47;4.40;99.90
21199;DHT22;10757;51.038;3.712;2023-01-29T04:19:14;4.40;99.90
21199;DHT22;10757;51.038;3.712;2023-01-29T04:21:40;4.40;99.90
21199;DHT22;10757;51.038;3.712;2023-01-29T04:24:07;4.40;99.90
21199;DHT22;10757;51.038;3.712;2023-01-29T04:26:51;4.10;99.90
21199;DHT22;10757;51.038;3.712;2023-01-29T04:29:39;3.90;99.90
21199;DHT22;10757;51.038;3.712;2023-01-29T04:34:59;4.00;99.90
21199;DHT22;10757;51.038;3.712;2023-01-29T04:37:38;4.10;99.90
21199;DHT22;10757;51.038;3.712;2023-01-29T04:43:03;4.30;99.90
21199;DHT22;10757;51.038;3.712;2023-01-29T04:45:37;4.40;99.90
21199;DHT22;10757;51.038;3.712;2023-01-29T04:50:44;4.70;99.90
21199;DHT22;10757;51.038;3.712;2023-01-29T04:53:27;4.60;99.90
21199;DHT22;10757;51.038;3.712;2023-01-29T04:56:10;4.40;99.90
21199;DHT22;10757;51.038;3.712;2023-01-29T04:58:42;4.50;99.90
21199;DHT22;10757;51.038;3.712;2023-01-29T05:01:15;4.30;99.90
21199;DHT22;10757;51.038;3.712;2023-01-29T05:03:45;4.10;99.90
21199;DHT22;10757;51.038;3.712;2023-01-29T05:06:15;4.10;99.90
21199;DHT22;10757;51.038;3.712;2023-01-29T05:08:42;4.00;99.90
21199;DHT22;10757;51.038;3.712;2023-01-29T05:11:09;4.00;99.90
21199;DHT22;10757;51.038;3.712;2023-01-29T05:13:37;4.50;99.90
21199;DHT22;10757;51.038;3.712;2023-01-29T05:16:15;4.50;99.90
21199;DHT22;10757;51.038;3.712;2023-01-29T05:18:41;4.50;99.90
21199;DHT22;10757;51.038;3.712;2023-01-29T05:21:08;4.30;99.90
21199;DHT22;10757;51.038;3.712;2023-01-29T05:23:34;4.50;99.90
21199;DHT22;10757;51.038;3.712;2023-01-29T05:26:00;4.90;99.90
21199;DHT22;10757;51.038;3.712;2023-01-29T05:28:26;5.00;99.90
21199;DHT22;10757;51.038;3.712;2023-01-29T05:30:53;4.50;99.90
21199;DHT22;10757;51.038;3.712;2023-01-29T05:33:25;4.40;99.90
21199;DHT22;10757;51.038;3.712;2023-01-29T05:35:51;4.30;99.90
21199;DHT22;10757;51.038;3.712;2023-01-29T05:38:18;4.10;99.90
21199;DHT22;10757;51.038;3.712;2023-01-29T05:40:44;3.90;99.90
21199;DHT22;10757;51.038;3.712;2023-01-29T05:43:20;4.10;99.90
21199;DHT22;10757;51.038;3.712;2023-01-29T05:45:59;4.20;99.90
21199;DHT22;10757;51.038;3.712;2023-01-29T05:48:26;4.10;99.90
21199;DHT22;10757;51.038;3.712;2023-01-29T05:50:53;4.20;99.90
21199;DHT22;10757;51.038;3.712;2023-01-29T05:53:19;4.30;99.90
21199;DHT22;10757;51.038;3.712;2023-01-29T05:55:46;4.40;99.90
21199;DHT22;10757;51.038;3.712;2023-01-29T05:58:12;4.30;99.90
21199;DHT22;10757;51.038;3.712;2023-01-29T06:00:39;4.20;99.90
21199;DHT22;10757;51.038;3.712;2023-01-29T06:03:05;4.10;99.90
21199;DHT22;10757;51.038;3.712;2023-01-29T06:05:30;4.00;99.90
21199;DHT22;10757;51.038;3.712;2023-01-29T06:07:56;4.20;99.90
21199;DHT22;10757;51.038;3.712;2023-01-29T06:10:22;4.30;99.90
21199;DHT22;10757;51.038;3.712;2023-01-29T06:12:48;4.20;99.90
21199;DHT22;10757;51.038;3.712;2023-01-29T06:15:14;4.50;99.90
21199;DHT22;10757;51.038;3.712;2023-01-29T06:17:44;4.70;99.90
21199;DHT22;10757;51.038;3.712;2023-01-29T06:20:10;4.50;99.90
21199;DHT22;10757;51.038;3.712;2023-01-29T06:22:36;4.70;99.90
21199;DHT22;10757;51.038;3.712;2023-01-29T06:25:02;4.50;99.90
21199;DHT22;10757;51.038;3.712;2023-01-29T06:27:28;4.50;99.90
21199;DHT22;10757;51.038;3.712;2023-01-29T06:29:54;4.20;99.90
21199;DHT22;10757;51.038;3.712;2023-01-29T06:32:19;4.20;99.90
21199;DHT22;10757;51.038;3.712;2023-01-29T06:34:45;4.10;99.90
21199;DHT22;10757;51.038;3.712;2023-01-29T06:37:11;4.10;99.90
21199;DHT22;10757;51.038;3.712;2023-01-29T06:39:37;4.30;99.90
21199;DHT22;10757;51.038;3.712;2023-01-29T06:42:03;4.30;99.90
21199;DHT22;10757;51.038;3.712;2023-01-29T06:44:28;4.20;99.90
21199;DHT22;10757;51.038;3.712;2023-01-29T06:46:54;4.30;99.90
21199;DHT22;10757;51.038;3.712;2023-01-29T06:49:20;4.50;99.90
21199;DHT22;10757;51.038;3.712;2023-01-29T06:51:46;4.40;99.90
21199;DHT22;10757;51.038;3.712;2023-01-29T06:54:12;4.50;99.90
21199;DHT22;10757;51.038;3.712;2023-01-29T06:56:38;4.30;99.90
21199;DHT22;10757;51.038;3.712;2023-01-29T06:59:04;4.30;99.90
21199;DHT22;10757;51.038;3.712;2023-01-29T07:01:30;4.60;99.90
21199;DHT22;10757;51.038;3.712;2023-01-29T07:03:56;4.40;99.90
21199;DHT22;10757;51.038;3.712;2023-01-29T07:06:26;4.70;99.90
21199;DHT22;10757;51.038;3.712;2023-01-29T07:08:52;4.80;99.90
21199;DHT22;10757;51.038;3.712;2023-01-29T07:11:18;4.90;99.90
21199;DHT22;10757;51.038;3.712;2023-01-29T07:13:44;4.80;99.90
21199;DHT22;10757;51.038;3.712;2023-01-29T07:16:09;4.80;99.90
21199;DHT22;10757;51.038;3.712;2023-01-29T07:18:35;4.80;99.90
21199;DHT22;10757;51.038;3.712;2023-01-29T07:21:05;4.90;99.90
21199;DHT22;10757;51.038;3.712;2023-01-29T07:23:32;5.10;99.90
21199;DHT22;10757;51.038;3.712;2023-01-29T07:26:05;5.20;99.90
21199;DHT22;10757;51.038;3.712;2023-01-29T07:28:38;5.20;99.90
21199;DHT22;10757;51.038;3.712;2023-01-29T07:31:05;5.30;99.90
21199;DHT22;10757;51.038;3.712;2023-01-29T07:33:31;5.20;99.90
21199;DHT22;10757;51.038;3.712;2023-01-29T07:35:57;5.00;99.90
21199;DHT22;10757;51.038;3.712;2023-01-29T07:38:23;4.80;99.90
21199;DHT22;10757;51.038;3.712;2023-01-29T07:40:51;4.70;99.90
21199;DHT22;10757;51.038;3.712;2023-01-29T07:43:16;4.80;99.90
21199;DHT22;10757;51.038;3.712;2023-01-29T07:45:42;4.70;99.90
21199;DHT22;10757;51.038;3.712;2023-01-29T07:48:10;4.80;99.90
21199;DHT22;10757;51.038;3.712;2023-01-29T07:50:37;4.70;99.90
21199;DHT22;10757;51.038;3.712;2023-01-29T07:53:03;4.60;99.90
21199;DHT22;10757;51.038;3.712;2023-01-29T07:55:29;4.70;99.90
21199;DHT22;10757;51.038;3.712;2023-01-29T07:58:00;4.70;99.90
21199;DHT22;10757;51.038;3.712;2023-01-29T08:00:27;4.90;99.90
21199;DHT22;10757;51.038;3.712;2023-01-29T08:02:53;4.80;99.90
21199;DHT22;10757;51.038;3.712;2023-01-29T08:05:19;4.90;99.90
21199;DHT22;10757;51.038;3.712;2023-01-29T08:07:44;4.90;99.90
21199;DHT22;10757;51.038;3.712;2023-01-29T08:10:11;5.00;99.90
21199;DHT22;10757;51.038;3.712;2023-01-29T08:12:36;4.90;99.90
21199;DHT22;10757;51.038;3.712;2023-01-29T08:15:05;5.00;99.90
21199;DHT22;10757;51.038;3.712;2023-01-29T08:17:31;4.90;99.90
21199;DHT22;10757;51.038;3.712;2023-01-29T08:19:57;4.90;99.90
21199;DHT22;10757;51.038;3.712;2023-01-29T08:22:23;4.80;99.90
21199;DHT22;10757;51.038;3.712;2023-01-29T08:24:49;4.70;99.90
21199;DHT22;10757;51.038;3.712;2023-01-29T08:27:14;4.80;99.90
21199;DHT22;10757;51.038;3.712;2023-01-29T08:29:40;4.90;99.90
21199;DHT22;10757;51.038;3.712;2023-01-29T08:32:08;5.00;99.90
21199;DHT22;10757;51.038;3.712;2023-01-29T08:34:35;5.20;99.90
21199;DHT22;10757;51.038;3.712;2023-01-29T08:37:01;5.40;99.90
21199;DHT22;10757;51.038;3.712;2023-01-29T08:39:26;5.50;99.90
21199;DHT22;10757;51.038;3.712;2023-01-29T08:41:53;5.60;99.90
21199;DHT22;10757;51.038;3.712;2023-01-29T08:44:19;5.30;99.90
21199;DHT22;10757;51.038;3.712;2023-01-29T08:46:45;5.10;99.90
21199;DHT22;10757;51.038;3.712;2023-01-29T08:49:10;5.10;99.90
21199;DHT22;10757;51.038;3.712;2023-01-29T08:51:36;5.20;99.90
21199;DHT22;10757;51.038;3.712;2023-01-29T08:54:02;5.20;99.90
21199;DHT22;10757;51.038;3.712;2023-01-29T08:56:28;5.10;99.90
21199;DHT22;10757;51.038;3.712;2023-01-29T08:58:53;5.30;99.90
21199;DHT22;10757;51.038;3.712;2023-01-29T09:01:19;5.60;99.90
21199;DHT22;10757;51.038;3.712;2023-01-29T09:03:45;5.70;99.90
21199;DHT22;10757;51.038;3.712;2023-01-29T09:06:12;5.70;99.90
21199;DHT22;10757;51.038;3.712;2023-01-29T09:08:39;5.60;99.90
21199;DHT22;10757;51.038;3.712;2023-01-29T09:11:05;5.40;99.90
21199;DHT22;10757;51.038;3.712;2023-01-29T09:13:32;5.30;99.90
21199;DHT22;10757;51.038;3.712;2023-01-29T09:16:02;5.30;99.90
21199;DHT22;10757;51.038;3.712;2023-01-29T09:18:28;5.20;99.90
21199;DHT22;10757;51.038;3.712;2023-01-29T09:20:54;5.40;99.90
21199;DHT22;10757;51.038;3.712;2023-01-29T09:23:20;5.50;99.90
21199;DHT22;10757;51.038;3.712;2023-01-29T09:25:46;5.60;99.90
21199;DHT22;10757;51.038;3.712;2023-01-29T09:28:12;5.80;99.90
21199;DHT22;10757;51.038;3.712;2023-01-29T09:30:38;5.70;99.90
21199;DHT22;10757;51.038;3.712;2023-01-29T09:33:05;5.60;99.90
21199;DHT22;10757;51.038;3.712;2023-01-29T09:35:31;5.40;99.90
21199;DHT22;10757;51.038;3.712;2023-01-29T09:37:57;5.40;99.90
21199;DHT22;10757;51.038;3.712;2023-01-29T09:43:14;5.30;99.90
21199;DHT22;10757;51.038;3.712;2023-01-29T09:48:40;5.20;99.90
21199;DHT22;10757;51.038;3.712;2023-01-29T09:51:14;5.50;99.90
21199;DHT22;10757;51.038;3.712;2023-01-29T09:54:14;5.70;99.90
21199;DHT22;10757;51.038;3.712;2023-01-29T09:56:37;5.70;99.90
21199;DHT22;10757;51.038;3.712;2023-01-29T09:59:03;5.60;99.90
21199;DHT22;10757;51.038;3.712;2023-01-29T10:04:26;5.60;99.90
21199;DHT22;10757;51.038;3.712;2023-01-29T10:07:19;5.60;99.90
21199;DHT22;10757;51.038;3.712;2023-01-29T10:15:52;5.80;99.90
21199;DHT22;10757;51.038;3.712;2023-01-29T10:18:30;5.80;99.90
21199;DHT22;10757;51.038;3.712;2023-01-29T10:21:27;5.80;99.90
21199;DHT22;10757;51.038;3.712;2023-01-29T10:26:32;5.70;99.90
21199;DHT22;10757;51.038;3.712;2023-01-29T10:29:00;5.80;99.90
21199;DHT22;10757;51.038;3.712;2023-01-29T10:31:31;5.80;99.90
21199;DHT22;10757;51.038;3.712;2023-01-29T10:34:37;5.80;99.90
21199;DHT22;10757;51.038;3.712;2023-01-29T10:40:30;5.80;99.90
21199;DHT22;10757;51.038;3.712;2023-01-29T10:42:59;5.90;99.90
21199;DHT22;10757;51.038;3.712;2023-01-29T10:45:37;6.10;99.90
21199;DHT22;10757;51.038;3.712;2023-01-29T10:48:34;6.20;99.90
21199;DHT22;10757;51.038;3.712;2023-01-29T10:51:21;6.20;99.90
21199;DHT22;10757;51.038;3.712;2023-01-29T10:53:56;6.30;99.90
21199;DHT22;10757;51.038;3.712;2023-01-29T11:01:55;6.70;99.90
21199;DHT22;10757;51.038;3.712;2023-01-29T11:04:21;6.70;99.90
21199;DHT22;10757;51.038;3.712;2023-01-29T11:06:48;6.80;99.90
21199;DHT22;10757;51.038;3.712;2023-01-29T11:09:22;6.80;99.90
21199;DHT22;10757;51.038;3.712;2023-01-29T11:12:26;6.90;99.90
21199;DHT22;10757;51.038;3.712;2023-01-29T11:17:24;6.80;99.90
21199;DHT22;10757;51.038;3.712;2023-01-29T11:19:51;6.80;99.90
21199;DHT22;10757;51.038;3.712;2023-01-29T11:22:22;6.80;99.90
21199;DHT22;10757;51.038;3.712;2023-01-29T11:25:08;6.90;99.90
21199;DHT22;10757;51.038;3.712;2023-01-29T11:27:43;6.80;99.90
21199;DHT22;10757;51.038;3.712;2023-01-29T11:30:34;7.00;99.90
21199;DHT22;10757;51.038;3.712;2023-01-29T11:35:35;7.10;99.90
21199;DHT22;10757;51.038;3.712;2023-01-29T11:38:21;7.00;99.90
21199;DHT22;10757;51.038;3.712;2023-01-29T11:40:51;7.00;99.90
21199;DHT22;10757;51.038;3.712;2023-01-29T11:45:56;7.00;99.90
21199;DHT22;10757;51.038;3.712;2023-01-29T11:48:30;7.10;99.90
21199;DHT22;10757;51.038;3.712;2023-01-29T11:50:58;7.10;99.90
21199;DHT22;10757;51.038;3.712;2023-01-29T11:53:39;7.10;99.90
21199;DHT22;10757;51.038;3.712;2023-01-29T11:58:55;7.20;99.90
21199;DHT22;10757;51.038;3.712;2023-01-29T12:01:37;7.30;99.90
21199;DHT22;10757;51.038;3.712;2023-01-29T12:04:14;7.00;99.90
21199;DHT22;10757;51.038;3.712;2023-01-29T12:06:43;7.00;99.90
21199;DHT22;10757;51.038;3.712;2023-01-29T12:09:13;7.10;99.90
21199;DHT22;10757;51.038;3.712;2023-01-29T12:11:40;7.00;99.90
21199;DHT22;10757;51.038;3.712;2023-01-29T12:14:29;7.20;99.90
21199;DHT22;10757;51.038;3.712;2023-01-29T12:19:41;7.40;99.90
21199;DHT22;10757;51.038;3.712;2023-01-29T12:33:38;7.80;99.90
21199;DHT22;10757;51.038;3.712;2023-01-29T12:36:15;7.80;99.90
21199;DHT22;10757;51.038;3.712;2023-01-29T12:38:43;7.60;99.90
21199;DHT22;10757;51.038;3.712;2023-01-29T12:43:52;7.40;99.90
21199;DHT22;10757;51.038;3.712;2023-01-29T12:46:39;7.50;99.90
21199;DHT22;10757;51.038;3.712;2023-01-29T12:49:17;7.50;99.90
21199;DHT22;10757;51.038;3.712;2023-01-29T12:52:35;7.40;99.90
21199;DHT22;10757;51.038;3.712;2023-01-29T12:54:48;7.20;99.90
21199;DHT22;10757;51.038;3.712;2023-01-29T12:57:43;7.10;99.90
21199;DHT22;10757;51.038;3.712;2023-01-29T13:00:31;7.40;99.90
21199;DHT22;10757;51.038;3.712;2023-01-29T13:03:12;7.40;99.90
21199;DHT22;10757;51.038;3.712;2023-01-29T13:05:49;7.60;99.90
21199;DHT22;10757;51.038;3.712;2023-01-29T13:10:48;7.50;99.90
21199;DHT22;10757;51.038;3.712;2023-01-29T13:15:52;7.40;99.90
21199;DHT22;10757;51.038;3.712;2023-01-29T13:18:36;7.40;99.90
21199;DHT22;10757;51.038;3.712;2023-01-29T13:21:04;7.30;99.90
21199;DHT22;10757;51.038;3.712;2023-01-29T13:23:35;7.40;99.90
21199;DHT22;10757;51.038;3.712;2023-01-29T13:26:05;7.20;99.90
21199;DHT22;10757;51.038;3.712;2023-01-29T13:28:31;7.30;99.90
21199;DHT22;10757;51.038;3.712;2023-01-29T13:31:33;7.30;99.90
21199;DHT22;10757;51.038;3.712;2023-01-29T13:34:28;6.90;99.90
21199;DHT22;10757;51.038;3.712;2023-01-29T13:37:23;7.00;99.90
21199;DHT22;10757;51.038;3.712;2023-01-29T13:39:53;6.80;99.90
21199;DHT22;10757;51.038;3.712;2023-01-29T13:42:38;7.00;99.90
21199;DHT22;10757;51.038;3.712;2023-01-29T13:45:07;7.20;99.90
21199;DHT22;10757;51.038;3.712;2023-01-29T13:47:38;7.00;99.90
21199;DHT22;10757;51.038;3.712;2023-01-29T13:50:28;7.20;99.90
21199;DHT22;10757;51.038;3.712;2023-01-29T13:53:01;7.60;99.90
21199;DHT22;10757;51.038;3.712;2023-01-29T13:58:00;7.30;99.90
21199;DHT22;10757;51.038;3.712;2023-01-29T14:05:43;7.40;99.90
21199;DHT22;10757;51.038;3.712;2023-01-29T14:13:45;7.60;99.90
21199;DHT22;10757;51.038;3.712;2023-01-29T14:18:46;7.50;99.90
21199;DHT22;10757;51.038;3.712;2023-01-29T14:23:45;7.60;99.90
21199;DHT22;10757;51.038;3.712;2023-01-29T14:34:33;7.40;99.90
21199;DHT22;10757;51.038;3.712;2023-01-29T14:37:26;7.30;99.90
21199;DHT22;10757;51.038;3.712;2023-01-29T14:43:06;7.00;99.90
21199;DHT22;10757;51.038;3.712;2023-01-29T14:45:38;7.10;99.90
21199;DHT22;10757;51.038;3.712;2023-01-29T14:51:13;7.20;99.90
21199;DHT22;10757;51.038;3.712;2023-01-29T14:53:56;7.20;99.90
21199;DHT22;10757;51.038;3.712;2023-01-29T14:57:01;7.10;99.90
21199;DHT22;10757;51.038;3.712;2023-01-29T14:59:45;6.90;99.90
21199;DHT22;10757;51.038;3.712;2023-01-29T15:02:19;7.00;99.90
21199;DHT22;10757;51.038;3.712;2023-01-29T15:04:48;7.00;99.90
21199;DHT22;10757;51.038;3.712;2023-01-29T15:07:43;7.10;99.90
21199;DHT22;10757;51.038;3.712;2023-01-29T15:10:24;7.30;99.90
21199;DHT22;10757;51.038;3.712;2023-01-29T15:13:03;7.20;99.90
21199;DHT22;10757;51.038;3.712;2023-01-29T15:15:51;7.20;99.90
21199;DHT22;10757;51.038;3.712;2023-01-29T15:18:27;7.30;99.90
21199;DHT22;10757;51.038;3.712;2023-01-29T15:21:03;7.00;99.90
21199;DHT22;10757;51.038;3.712;2023-01-29T15:23:31;7.20;99.90
21199;DHT22;10757;51.038;3.712;2023-01-29T15:26:10;7.20;99.90
21199;DHT22;10757;51.038;3.712;2023-01-29T15:28:42;7.20;99.90
21199;DHT22;10757;51.038;3.712;2023-01-29T15:31:12;7.00;99.90
21199;DHT22;10757;51.038;3.712;2023-01-29T15:33:49;7.00;99.90
21199;DHT22;10757;51.038;3.712;2023-01-29T15:36:22;6.90;99.90
21199;DHT22;10757;51.038;3.712;2023-01-29T15:39:11;7.00;99.90
21199;DHT22;10757;51.038;3.712;2023-01-29T15:41:39;6.80;99.90
21199;DHT22;10757;51.038;3.712;2023-01-29T15:44:23;6.80;99.90
21199;DHT22;10757;51.038;3.712;2023-01-29T15:47:00;6.90;99.90
21199;DHT22;10757;51.038;3.712;2023-01-29T15:49:34;7.00;99.90
21199;DHT22;10757;51.038;3.712;2023-01-29T15:52:07;7.10;99.90
21199;DHT22;10757;51.038;3.712;2023-01-29T15:54:36;6.90;99.90
21199;DHT22;10757;51.038;3.712;2023-01-29T15:57:03;6.80;99.90
21199;DHT22;10757;51.038;3.712;2023-01-29T15:59:37;6.80;99.90
21199;DHT22;10757;51.038;3.712;2023-01-29T16:02:39;6.90;99.90
21199;DHT22;10757;51.038;3.712;2023-01-29T16:05:18;6.90;99.90
21199;DHT22;10757;51.038;3.712;2023-01-29T16:07:44;6.80;99.90
21199;DHT22;10757;51.038;3.712;2023-01-29T16:10:21;6.80;99.90
21199;DHT22;10757;51.038;3.712;2023-01-29T16:12:51;6.80;99.90
21199;DHT22;10757;51.038;3.712;2023-01-29T16:15:27;6.80;99.90
21199;DHT22;10757;51.038;3.712;2023-01-29T16:17:55;6.60;99.90
21199;DHT22;10757;51.038;3.712;2023-01-29T16:20:51;6.50;99.90
21199;DHT22;10757;51.038;3.712;2023-01-29T16:23:35;6.60;99.90
21199;DHT22;10757;51.038;3.712;2023-01-29T16:26:08;6.60;99.90
21199;DHT22;10757;51.038;3.712;2023-01-29T16:28:44;6.50;99.90
21199;DHT22;10757;51.038;3.712;2023-01-29T16:31:12;6.70;99.90
21199;DHT22;10757;51.038;3.712;2023-01-29T16:33:45;6.70;99.90
21199;DHT22;10757;51.038;3.712;2023-01-29T16:36:23;6.60;99.90
21199;DHT22;10757;51.038;3.712;2023-01-29T16:38:55;6.60;99.90
21199;DHT22;10757;51.038;3.712;2023-01-29T16:43:50;6.40;99.90
21199;DHT22;10757;51.038;3.712;2023-01-29T16:46:34;6.60;99.90
21199;DHT22;10757;51.038;3.712;2023-01-29T16:49:00;6.60;99.90
21199;DHT22;10757;51.038;3.712;2023-01-29T16:51:36;6.50;99.90
21199;DHT22;10757;51.038;3.712;2023-01-29T16:54:10;6.40;99.90
21199;DHT22;10757;51.038;3.712;2023-01-29T16:56:38;6.30;99.90
21199;DHT22;10757;51.038;3.712;2023-01-29T16:59:04;6.30;99.90
21199;DHT22;10757;51.038;3.712;2023-01-29T17:01:33;6.20;99.90
21199;DHT22;10757;51.038;3.712;2023-01-29T17:04:12;6.20;99.90
21199;DHT22;10757;51.038;3.712;2023-01-29T17:06:45;6.10;99.90
21199;DHT22;10757;51.038;3.712;2023-01-29T17:09:30;6.30;99.90
21199;DHT22;10757;51.038;3.712;2023-01-29T17:12:04;6.40;99.90
21199;DHT22;10757;51.038;3.712;2023-01-29T17:14:31;6.30;99.90
21199;DHT22;10757;51.038;3.712;2023-01-29T17:17:06;6.20;99.90
21199;DHT22;10757;51.038;3.712;2023-01-29T17:19:38;6.20;99.90
21199;DHT22;10757;51.038;3.712;2023-01-29T17:22:04;6.30;99.90
21199;DHT22;10757;51.038;3.712;2023-01-29T17:24:33;6.20;99.90
21199;DHT22;10757;51.038;3.712;2023-01-29T17:27:02;6.00;99.90
21199;DHT22;10757;51.038;3.712;2023-01-29T17:29:29;6.00;99.90
21199;DHT22;10757;51.038;3.712;2023-01-29T17:31:56;6.00;99.90
21199;DHT22;10757;51.038;3.712;2023-01-29T17:34:24;6.00;99.90
21199;DHT22;10757;51.038;3.712;2023-01-29T17:36:50;6.20;99.90
21199;DHT22;10757;51.038;3.712;2023-01-29T17:39:20;6.40;99.90
21199;DHT22;10757;51.038;3.712;2023-01-29T17:41:51;6.40;99.90
21199;DHT22;10757;51.038;3.712;2023-01-29T17:44:17;6.20;99.90
21199;DHT22;10757;51.038;3.712;2023-01-29T17:46:44;6.10;99.90
21199;DHT22;10757;51.038;3.712;2023-01-29T17:49:24;6.10;99.90
21199;DHT22;10757;51.038;3.712;2023-01-29T17:51:54;6.10;99.90
21199;DHT22;10757;51.038;3.712;2023-01-29T17:54:21;6.10;99.90
21199;DHT22;10757;51.038;3.712;2023-01-29T17:56:47;5.90;99.90
21199;DHT22;10757;51.038;3.712;2023-01-29T17:59:18;6.10;99.90
21199;DHT22;10757;51.038;3.712;2023-01-29T18:01:47;6.00;99.90
21199;DHT22;10757;51.038;3.712;2023-01-29T18:04:13;6.20;99.90
21199;DHT22;10757;51.038;3.712;2023-01-29T18:06:40;6.20;99.90
21199;DHT22;10757;51.038;3.712;2023-01-29T18:09:08;6.20;99.90
21199;DHT22;10757;51.038;3.712;2023-01-29T18:11:42;6.20;99.90
21199;DHT22;10757;51.038;3.712;2023-01-29T18:14:08;6.30;99.90
21199;DHT22;10757;51.038;3.712;2023-01-29T18:16:50;6.40;99.90
21199;DHT22;10757;51.038;3.712;2023-01-29T18:19:20;6.20;99.90
21199;DHT22;10757;51.038;3.712;2023-01-29T18:21:48;6.20;99.90
21199;DHT22;10757;51.038;3.712;2023-01-29T18:24:14;6.50;99.90
21199;DHT22;10757;51.038;3.712;2023-01-29T18:26:40;6.30;99.90
21199;DHT22;10757;51.038;3.712;2023-01-29T18:29:06;6.30;99.90
21199;DHT22;10757;51.038;3.712;2023-01-29T18:31:32;6.30;99.90
21199;DHT22;10757;51.038;3.712;2023-01-29T18:33:58;6.40;99.90